^^
Station Historical Data
 
Daily Summary for August 22, 2017 Units:  English    Metric   Both
« Previous Day
Next Day »
Daily Weekly Monthly Yearly Custom
  Current: High: Low: Average:
Temperature: 75.6 °F 88.5 °F 67.1 °F 77.5 °F
Dew Point: 72.5 °F 77.9 °F 66.4 °F 72.3 °F
Humidity: 90% 98% 65% 85%
Wind Speed: 2.0mph 17.0mph 0.0mph 2.5mph
Wind Gust: 9.0mph 18.0mph - -
WindWSW - - SSW
Pressure: 29.79 in 30.10 in 29.75 in -
Precipitation: 0.24 in      
Historical Graphs
 
 
Tabular Data for August 22, 2017
Time Temperature Dew Point Pressure Wind Wind Speed Wind Gust Humidity Rainfall Rate (Hourly) solar Conditions
00:01 71.1 °F 69.8 °F 30.10 in Calm     96% 0.00 in meteobridge W/m2
00:06 71.1 °F 69.8 °F 30.10 in Calm     96% 0.00 in meteobridge W/m2
00:11 71.1 °F 69.8 °F 30.09 in Calm     96% 0.00 in meteobridge W/m2
00:16 70.9 °F 69.6 °F 30.10 in Calm     96% 0.00 in meteobridge W/m2
00:21 70.7 °F 69.4 °F 30.10 in Calm     96% 0.00 in meteobridge W/m2
00:26 70.5 °F 69.3 °F 30.10 in Calm     96% 0.00 in meteobridge W/m2
00:31 70.3 °F 69.1 °F 30.09 in Calm     96% 0.00 in meteobridge W/m2
00:36 70.3 °F 69.1 °F 30.09 in Calm     96% 0.00 in meteobridge W/m2
00:41 70.2 °F 68.9 °F 30.09 in Calm     96% 0.00 in meteobridge W/m2
00:45 70.0 °F 68.7 °F 30.09 in Calm     96% 0.00 in meteobridge W/m2
00:50 69.8 °F 68.5 °F 30.09 in Calm     96% 0.00 in meteobridge W/m2
00:55 69.6 °F 68.7 °F 30.09 in Calm     97% 0.00 in meteobridge W/m2
01:00 69.6 °F 68.4 °F 30.09 in Calm     96% 0.00 in meteobridge W/m2
01:05 69.4 °F 68.2 °F 30.08 in Calm     96% 0.00 in meteobridge W/m2
01:10 69.4 °F 68.5 °F 30.08 in Calm     97% 0.00 in meteobridge W/m2
01:15 69.4 °F 68.5 °F 30.08 in Calm     97% 0.00 in meteobridge W/m2
01:20 69.4 °F 68.5 °F 30.08 in Calm     97% 0.00 in meteobridge W/m2
01:25 69.4 °F 68.5 °F 30.08 in Calm     97% 0.00 in meteobridge W/m2
01:30 69.3 °F 68.4 °F 30.08 in Calm     97% 0.00 in meteobridge W/m2
01:35 69.3 °F 68.4 °F 30.07 in Calm     97% 0.00 in meteobridge W/m2
01:40 69.3 °F 68.4 °F 30.07 in Calm     97% 0.00 in meteobridge W/m2
01:45 69.3 °F 68.4 °F 30.07 in Calm     97% 0.00 in meteobridge W/m2
01:50 69.3 °F 68.4 °F 30.07 in Calm     97% 0.00 in meteobridge W/m2
01:55 69.1 °F 68.2 °F 30.07 in Calm     97% 0.00 in meteobridge W/m2
02:00 69.1 °F 68.2 °F 30.07 in Calm     97% 0.00 in meteobridge W/m2
02:05 69.1 °F 68.2 °F 30.07 in Calm     97% 0.00 in meteobridge W/m2
02:10 69.3 °F 68.4 °F 30.07 in Calm     97% 0.00 in meteobridge W/m2
02:15 69.1 °F 68.2 °F 30.06 in Calm     97% 0.00 in meteobridge W/m2
02:20 69.1 °F 68.2 °F 30.06 in Calm     97% 0.00 in meteobridge W/m2
02:25 69.1 °F 68.2 °F 30.06 in Calm     97% 0.00 in meteobridge W/m2
02:30 69.1 °F 68.2 °F 30.06 in Calm     97% 0.00 in meteobridge W/m2
02:35 69.1 °F 68.2 °F 30.06 in Calm     97% 0.00 in meteobridge W/m2
02:40 68.9 °F 68.0 °F 30.06 in Calm     97% 0.00 in meteobridge W/m2
02:45 68.9 °F 68.0 °F 30.06 in Calm     97% 0.00 in meteobridge W/m2
02:50 68.9 °F 68.0 °F 30.06 in Calm     97% 0.00 in meteobridge W/m2
02:55 68.9 °F 68.0 °F 30.06 in Calm     97% 0.00 in meteobridge W/m2
03:00 68.9 °F 68.0 °F 30.06 in Calm     97% 0.00 in meteobridge W/m2
03:05 68.7 °F 67.8 °F 30.06 in Calm     97% 0.00 in meteobridge W/m2
03:10 68.7 °F 67.8 °F 30.05 in Calm     97% 0.00 in meteobridge W/m2
03:15 68.7 °F 67.8 °F 30.05 in Calm     97% 0.00 in meteobridge W/m2
03:21 68.5 °F 67.6 °F 30.05 in Calm     97% 0.00 in meteobridge W/m2
03:26 68.5 °F 67.6 °F 30.05 in Calm     97% 0.00 in meteobridge W/m2
03:31 68.5 °F 67.6 °F 30.05 in Calm     97% 0.00 in meteobridge W/m2
03:36 68.7 °F 67.8 °F 30.04 in Calm     97% 0.00 in meteobridge W/m2
03:41 68.5 °F 67.6 °F 30.04 in Calm     97% 0.00 in meteobridge W/m2
03:46 68.5 °F 67.6 °F 30.04 in Calm     97% 0.00 in meteobridge W/m2
03:51 68.5 °F 67.6 °F 30.04 in Calm     97% 0.00 in meteobridge W/m2
03:56 68.5 °F 67.6 °F 30.04 in Calm     97% 0.00 in meteobridge W/m2
04:01 68.5 °F 67.6 °F 30.03 in Calm     97% 0.00 in meteobridge W/m2
04:06 68.4 °F 67.5 °F 30.03 in Calm     97% 0.00 in meteobridge W/m2
04:11 68.4 °F 67.5 °F 30.03 in Calm     97% 0.00 in meteobridge W/m2
04:16 68.4 °F 67.5 °F 30.03 in Calm     97% 0.00 in meteobridge W/m2
04:21 68.4 °F 67.5 °F 30.03 in Calm     97% 0.00 in meteobridge W/m2
04:26 68.5 °F 67.6 °F 30.03 in Calm     97% 0.00 in meteobridge W/m2
04:31 68.5 °F 67.6 °F 30.03 in Calm     97% 0.00 in meteobridge W/m2
04:36 68.4 °F 67.5 °F 30.03 in Calm     97% 0.00 in meteobridge W/m2
04:41 68.4 °F 67.5 °F 30.03 in Calm     97% 0.00 in meteobridge W/m2
04:46 68.4 °F 67.5 °F 30.02 in Calm     97% 0.00 in meteobridge W/m2
04:51 68.4 °F 67.5 °F 30.02 in Calm     97% 0.00 in meteobridge W/m2
04:52 68.4 °F 67.5 °F 30.02 in Calm     97% 0.00 in meteobridge W/m2
04:57 68.4 °F 67.5 °F 30.03 in Calm     97% 0.00 in meteobridge W/m2
05:02 68.4 °F 67.5 °F 30.02 in Calm     97% 0.00 in meteobridge W/m2
05:07 68.4 °F 67.5 °F 30.02 in Calm     97% 0.00 in meteobridge W/m2
05:12 68.0 °F 67.1 °F 30.02 in Calm     97% 0.00 in meteobridge W/m2
05:17 67.8 °F 66.9 °F 30.02 in Calm     97% 0.00 in meteobridge W/m2
05:22 67.6 °F 66.7 °F 30.02 in Calm     97% 0.00 in meteobridge W/m2
05:27 67.8 °F 66.9 °F 30.03 in Calm     97% 0.00 in meteobridge W/m2
05:32 67.6 °F 66.7 °F 30.03 in Calm     97% 0.00 in meteobridge W/m2
05:37 67.6 °F 66.7 °F 30.03 in Calm     97% 0.00 in meteobridge W/m2
05:42 67.6 °F 66.7 °F 30.02 in Calm     97% 0.00 in meteobridge W/m2
05:43 67.6 °F 66.7 °F 30.02 in Calm     97% 0.00 in meteobridge W/m2
05:48 67.6 °F 66.7 °F 30.02 in Calm     97% 0.00 in meteobridge W/m2
05:54 67.6 °F 66.7 °F 30.02 in Calm     97% 0.00 in meteobridge W/m2
05:59 67.6 °F 66.7 °F 30.02 in Calm     97% 0.00 in meteobridge W/m2
06:04 67.5 °F 66.6 °F 30.03 in Calm     97% 0.00 in meteobridge W/m2
06:09 67.5 °F 66.6 °F 30.03 in Calm     97% 0.00 in meteobridge W/m2
06:14 67.5 °F 66.6 °F 30.03 in Calm     97% 0.00 in meteobridge W/m2
06:19 67.5 °F 66.6 °F 30.03 in Calm     97% 0.00 in meteobridge W/m2
06:24 67.3 °F 66.4 °F 30.03 in Calm     97% 0.00 in meteobridge W/m2
06:29 67.3 °F 66.7 °F 30.03 in Calm     98% 0.00 in meteobridge W/m2
06:34 67.3 °F 66.7 °F 30.03 in Calm     98% 0.00 in meteobridge W/m2
06:39 67.3 °F 66.7 °F 30.03 in Calm     98% 0.00 in meteobridge W/m2
06:44 67.5 °F 66.9 °F 30.03 in Calm     98% 0.00 in meteobridge W/m2
06:49 67.6 °F 66.7 °F 30.03 in Calm   1.0 mph 97% 0.00 in meteobridge W/m2
06:54 67.3 °F 66.7 °F 30.03 in Calm     98% 0.00 in meteobridge W/m2
06:59 67.1 °F 66.6 °F 30.03 in Calm     98% 0.00 in meteobridge W/m2
07:04 67.3 °F 66.7 °F 30.03 in Calm     98% 0.00 in meteobridge W/m2
07:09 67.6 °F 66.7 °F 30.03 in Calm     97% 0.00 in meteobridge W/m2
07:14 68.2 °F 67.6 °F 30.03 in Calm     98% 0.00 in meteobridge W/m2
07:19 68.4 °F 67.8 °F 30.03 in Calm     98% 0.00 in meteobridge W/m2
07:24 68.7 °F 68.2 °F 30.03 in Calm     98% 0.00 in meteobridge W/m2
07:29 69.3 °F 68.7 °F 30.03 in Calm     98% 0.00 in meteobridge W/m2
07:34 70.0 °F 69.4 °F 30.02 in Calm     98% 0.00 in meteobridge W/m2
07:39 70.3 °F 69.8 °F 30.02 in Calm     98% 0.00 in meteobridge W/m2
07:44 71.1 °F 70.2 °F 30.02 in Calm     97% 0.00 in meteobridge W/m2
07:49 71.2 °F 70.3 °F 30.02 in Calm   1.0 mph 97% 0.00 in meteobridge W/m2
07:55 71.4 °F 70.5 °F 30.02 in Calm     97% 0.00 in meteobridge W/m2
08:00 71.8 °F 70.9 °F 30.02 in Calm     97% 0.00 in meteobridge W/m2
08:05 72.0 °F 71.1 °F 30.03 in Calm     97% 0.00 in meteobridge W/m2
08:10 71.8 °F 70.9 °F 30.02 in Calm     97% 0.00 in meteobridge W/m2
08:15 72.0 °F 71.1 °F 30.02 in Calm     97% 0.00 in meteobridge W/m2
08:20 72.3 °F 71.4 °F 30.02 in SW 0.9 mph 3.0 mph 97% 0.00 in meteobridge W/m2
08:25 72.5 °F 71.6 °F 30.02 in Calm   2.0 mph 97% 0.00 in meteobridge W/m2
08:30 72.9 °F 72.0 °F 30.02 in SE 2.0 mph 2.0 mph 97% 0.00 in meteobridge W/m2
08:35 72.7 °F 71.4 °F 30.02 in SW 2.0 mph 4.0 mph 96% 0.00 in meteobridge W/m2
08:40 72.9 °F 72.0 °F 30.02 in Calm   1.0 mph 97% 0.00 in meteobridge W/m2
08:45 73.0 °F 72.1 °F 30.01 in SSE 0.9 mph 4.0 mph 97% 0.00 in meteobridge W/m2
08:50 73.2 °F 72.3 °F 30.01 in SW 0.9 mph 4.0 mph 97% 0.00 in meteobridge W/m2
08:55 73.0 °F 71.8 °F 30.01 in SW 2.9 mph 5.0 mph 96% 0.00 in meteobridge W/m2
09:00 73.0 °F 71.8 °F 30.01 in SSW 2.0 mph 4.0 mph 96% 0.00 in meteobridge W/m2
09:05 73.2 °F 72.0 °F 30.01 in SW 2.0 mph 4.0 mph 96% 0.00 in meteobridge W/m2
09:10 73.2 °F 72.0 °F 30.01 in WSW 2.9 mph 6.0 mph 96% 0.00 in meteobridge W/m2
09:15 73.2 °F 72.0 °F 30.01 in SSE 0.9 mph 5.0 mph 96% 0.00 in meteobridge W/m2
09:20 73.4 °F 72.1 °F 30.00 in SW 2.9 mph 4.0 mph 96% 0.00 in meteobridge W/m2
09:25 73.8 °F 72.5 °F 30.00 in WSW 2.9 mph 4.0 mph 96% 0.00 in meteobridge W/m2
09:30 73.8 °F 72.3 °F 30.00 in SW 6.0 mph 8.0 mph 95% 0.00 in meteobridge W/m2
09:35 74.1 °F 72.3 °F 30.00 in WSW 2.0 mph 5.0 mph 94% 0.00 in meteobridge W/m2
09:40 74.8 °F 73.0 °F 30.00 in WSW 4.0 mph 7.0 mph 94% 0.00 in meteobridge W/m2
09:45 75.4 °F 72.9 °F 30.00 in West 2.0 mph 4.0 mph 92% 0.00 in meteobridge W/m2
09:50 75.9 °F 73.8 °F 30.00 in NNE 0.9 mph 5.0 mph 93% 0.00 in meteobridge W/m2
09:55 76.6 °F 73.4 °F 29.99 in South 2.0 mph 3.0 mph 90% 0.00 in meteobridge W/m2
10:00 76.5 °F 73.9 °F 29.99 in West 0.9 mph 5.0 mph 92% 0.00 in meteobridge W/m2
10:05 77.2 °F 73.9 °F 29.99 in SSE 4.0 mph 7.0 mph 90% 0.00 in meteobridge W/m2
10:10 77.2 °F 73.9 °F 29.99 in South 2.0 mph 6.0 mph 90% 0.00 in meteobridge W/m2
10:15 77.5 °F 73.8 °F 29.99 in SW 2.9 mph 3.0 mph 88% 0.00 in meteobridge W/m2
10:20 77.9 °F 74.1 °F 29.98 in WSW 0.9 mph 2.0 mph 88% 0.00 in meteobridge W/m2
10:26 78.4 °F 74.7 °F 29.98 in South 0.9 mph 4.0 mph 88% 0.00 in meteobridge W/m2
10:31 79.2 °F 75.0 °F 29.98 in South 2.0 mph 6.0 mph 87% 0.00 in meteobridge W/m2
10:36 79.9 °F 75.0 °F 29.98 in SSE 2.0 mph 4.0 mph 85% 0.00 in meteobridge W/m2
10:41 80.4 °F 75.9 °F 29.98 in SE 4.0 mph 5.0 mph 86% 0.00 in meteobridge W/m2
10:42 80.4 °F 75.6 °F 29.98 in SSE 2.0 mph 7.0 mph 85% 0.00 in meteobridge W/m2
10:47 81.0 °F 75.4 °F 29.98 in SSE 2.9 mph 6.0 mph 83% 0.00 in meteobridge W/m2
10:52 80.4 °F 74.8 °F 29.98 in SSE 6.0 mph 8.0 mph 83% 0.00 in meteobridge W/m2
10:57 81.1 °F 75.6 °F 29.98 in South 4.9 mph 9.0 mph 83% 0.00 in meteobridge W/m2
11:02 81.7 °F 75.6 °F 29.98 in WSW 2.9 mph 6.0 mph 82% 0.00 in meteobridge W/m2
11:07 81.7 °F 76.3 °F 29.98 in SSW 2.0 mph 5.0 mph 84% 0.00 in meteobridge W/m2
11:12 81.9 °F 75.7 °F 29.97 in West 4.0 mph 4.0 mph 82% 0.00 in meteobridge W/m2
11:17 81.9 °F 75.4 °F 29.97 in Calm   2.0 mph 81% 0.00 in meteobridge W/m2
11:22 82.2 °F 76.5 °F 29.97 in SE 6.0 mph 7.0 mph 83% 0.00 in meteobridge W/m2
11:27 83.1 °F 75.9 °F 29.97 in South 2.9 mph 7.0 mph 79% 0.00 in meteobridge W/m2
11:32 83.3 °F 75.7 °F 29.97 in South 4.0 mph 8.0 mph 78% 0.01 in meteobridge W/m2
11:37 83.1 °F 75.2 °F 29.97 in SW 4.0 mph 6.0 mph 77% 0.01 in meteobridge W/m2
11:42 82.9 °F 76.5 °F 29.96 in SE 4.9 mph 5.0 mph 81% 0.01 in meteobridge W/m2
11:47 83.8 °F 76.6 °F 29.96 in SSE 4.0 mph 8.0 mph 79% 0.01 in meteobridge W/m2
11:52 83.7 °F 76.1 °F 29.96 in West 2.9 mph 6.0 mph 78% 0.01 in meteobridge W/m2
11:57 83.8 °F 76.3 °F 29.96 in SSE 4.9 mph 6.0 mph 78% 0.01 in meteobridge W/m2
12:02 84.0 °F 75.6 °F 29.96 in SSW 4.9 mph 9.0 mph 76% 0.01 in meteobridge W/m2
12:07 84.6 °F 76.5 °F 29.96 in South 4.9 mph 9.0 mph 77% 0.01 in meteobridge W/m2
12:12 85.1 °F 75.9 °F 29.95 in SSW 2.9 mph 5.0 mph 74% 0.01 in meteobridge W/m2
12:17 84.9 °F 76.1 °F 29.95 in South 4.9 mph 6.0 mph 75% 0.01 in meteobridge W/m2
12:22 85.1 °F 75.9 °F 29.95 in South 4.0 mph 6.0 mph 74% 0.01 in meteobridge W/m2
12:27 85.6 °F 77.5 °F 29.95 in SW 2.9 mph 4.0 mph 77% 0.01 in meteobridge W/m2
12:32 85.5 °F 75.7 °F 29.95 in SSW 4.9 mph 6.0 mph 73% 0.00 in meteobridge W/m2
12:37 86.2 °F 77.4 °F 29.94 in SSW 2.9 mph 8.0 mph 75% 0.00 in meteobridge W/m2
12:42 86.0 °F 76.3 °F 29.94 in WSW 2.0 mph 8.0 mph 73% 0.00 in meteobridge W/m2
12:47 85.8 °F 76.6 °F 29.94 in SSE 6.9 mph 9.0 mph 74% 0.00 in meteobridge W/m2
12:52 86.2 °F 77.4 °F 29.94 in South 4.9 mph 8.0 mph 75% 0.00 in meteobridge W/m2
12:57 86.0 °F 76.3 °F 29.94 in SSW 2.0 mph 6.0 mph 73% 0.00 in meteobridge W/m2
13:02 85.6 °F 75.6 °F 29.94 in NW 4.0 mph 9.0 mph 72% 0.00 in meteobridge W/m2
13:07 86.4 °F 77.0 °F 29.93 in South 0.9 mph 5.0 mph 74% 0.00 in meteobridge W/m2
13:12 86.7 °F 76.6 °F 29.93 in South 2.9 mph 7.0 mph 72% 0.00 in meteobridge W/m2
13:18 86.7 °F 77.0 °F 29.93 in SE 2.9 mph 8.0 mph 73% 0.00 in meteobridge W/m2
13:23 86.2 °F 76.5 °F 29.92 in SW 2.0 mph 7.0 mph 73% 0.00 in meteobridge W/m2
13:28 86.4 °F 77.5 °F 29.92 in South 2.9 mph 6.0 mph 75% 0.00 in meteobridge W/m2
13:33 87.1 °F 77.4 °F 29.92 in SW 4.0 mph 6.0 mph 73% 0.00 in meteobridge W/m2
13:38 87.4 °F 77.4 °F 29.92 in SSE 11.0 mph 11.0 mph 72% 0.00 in meteobridge W/m2
13:43 87.4 °F 75.6 °F 29.92 in SSW 4.9 mph 10.0 mph 68% 0.00 in meteobridge W/m2
13:48 87.1 °F 76.5 °F 29.92 in West 4.0 mph 9.0 mph 71% 0.00 in meteobridge W/m2
13:53 87.1 °F 77.0 °F 29.91 in South 6.0 mph 6.0 mph 72% 0.00 in meteobridge W/m2
13:58 87.4 °F 77.4 °F 29.91 in SE 4.9 mph 10.0 mph 72% 0.00 in meteobridge W/m2
14:03 86.9 °F 75.9 °F 29.91 in SE 6.0 mph 13.0 mph 70% 0.00 in meteobridge W/m2
14:08 87.3 °F 75.4 °F 29.90 in NW 6.0 mph 9.0 mph 68% 0.00 in meteobridge W/m2
14:13 87.1 °F 75.7 °F 29.90 in South 2.0 mph 6.0 mph 69% 0.00 in meteobridge W/m2
14:18 87.3 °F 77.5 °F 29.90 in South 2.9 mph 10.0 mph 73% 0.00 in meteobridge W/m2
14:23 87.6 °F 75.7 °F 29.89 in SSE 2.0 mph 9.0 mph 68% 0.00 in meteobridge W/m2
14:28 87.6 °F 75.7 °F 29.89 in West 4.0 mph 6.0 mph 68% 0.00 in meteobridge W/m2
14:33 87.3 °F 75.9 °F 29.89 in South 2.0 mph 7.0 mph 69% 0.00 in meteobridge W/m2
14:38 88.0 °F 77.9 °F 29.88 in SSW 8.1 mph 10.0 mph 72% 0.00 in meteobridge W/m2
14:43 87.6 °F 76.1 °F 29.88 in SSE 6.0 mph 8.0 mph 69% 0.00 in meteobridge W/m2
14:48 88.3 °F 76.8 °F 29.88 in SSE 2.0 mph 5.0 mph 69% 0.00 in meteobridge W/m2
14:53 88.3 °F 76.5 °F 29.88 in SW 8.9 mph 14.0 mph 68% 0.00 in meteobridge W/m2
15:03 88.3 °F 75.6 °F 29.87 in SSW 2.9 mph 14.0 mph 66% 0.00 in meteobridge W/m2
15:08 87.8 °F 75.4 °F 29.86 in SSW 2.0 mph 15.0 mph 67% 0.00 in meteobridge W/m2
15:13 88.3 °F 75.9 °F 29.86 in SW 2.0 mph 6.0 mph 67% 0.00 in meteobridge W/m2
15:18 88.3 °F 75.9 °F 29.86 in SW 6.0 mph 9.0 mph 67% 0.00 in meteobridge W/m2
15:23 88.0 °F 75.6 °F 29.86 in North 2.9 mph 12.0 mph 67% 0.00 in meteobridge W/m2
15:28 88.3 °F 75.0 °F 29.86 in SW 4.0 mph 11.0 mph 65% 0.00 in meteobridge W/m2
15:33 88.2 °F 75.7 °F 29.86 in South 6.9 mph 11.0 mph 67% 0.00 in meteobridge W/m2
15:38 88.5 °F 77.0 °F 29.85 in SSE 6.9 mph 12.0 mph 69% 0.00 in meteobridge W/m2
15:43 87.6 °F 76.6 °F 29.85 in South 4.9 mph 9.0 mph 70% 0.00 in meteobridge W/m2
15:48 87.6 °F 77.5 °F 29.85 in SE 11.0 mph 11.0 mph 72% 0.00 in meteobridge W/m2
15:53 87.8 °F 77.2 °F 29.85 in SSW 4.0 mph 10.0 mph 71% 0.00 in meteobridge W/m2
15:58 88.0 °F 77.4 °F 29.85 in SSW 4.0 mph 9.0 mph 71% 0.00 in meteobridge W/m2
16:03 87.3 °F 76.6 °F 29.85 in SSE 4.9 mph 8.0 mph 71% 0.00 in meteobridge W/m2
16:08 87.6 °F 77.5 °F 29.84 in South 8.1 mph 11.0 mph 72% 0.00 in meteobridge W/m2
16:14 87.4 °F 76.8 °F 29.84 in South 8.1 mph 10.0 mph 71% 0.00 in meteobridge W/m2
16:19 88.0 °F 77.4 °F 29.83 in South 2.0 mph 8.0 mph 71% 0.00 in meteobridge W/m2
16:24 88.0 °F 77.0 °F 29.83 in WSW 6.9 mph 13.0 mph 70% 0.00 in meteobridge W/m2
16:29 87.8 °F 75.9 °F 29.83 in SE 2.9 mph 13.0 mph 68% 0.00 in meteobridge W/m2
16:34 87.6 °F 77.0 °F 29.83 in SSW 2.9 mph 10.0 mph 71% 0.00 in meteobridge W/m2
16:39 87.4 °F 76.8 °F 29.83 in SSW 4.9 mph 15.0 mph 71% 0.00 in meteobridge W/m2
16:44 87.4 °F 75.9 °F 29.82 in South 4.9 mph 10.0 mph 69% 0.00 in meteobridge W/m2
16:49 87.3 °F 76.3 °F 29.82 in SSE 4.9 mph 15.0 mph 70% 0.00 in meteobridge W/m2
16:54 87.4 °F 76.8 °F 29.82 in SW 4.0 mph 7.0 mph 71% 0.00 in meteobridge W/m2
16:59 87.3 °F 76.3 °F 29.81 in SSE 17.0 mph 17.0 mph 70% 0.00 in meteobridge W/m2
17:04 87.1 °F 75.7 °F 29.81 in South 4.9 mph 14.0 mph 69% 0.00 in meteobridge W/m2
17:09 86.9 °F 75.9 °F 29.81 in SW 6.9 mph 15.0 mph 70% 0.00 in meteobridge W/m2
17:14 86.7 °F 76.1 °F 29.81 in SSE 4.0 mph 9.0 mph 71% 0.00 in meteobridge W/m2
17:19 86.7 °F 75.4 °F 29.80 in South 6.9 mph 14.0 mph 69% 0.00 in meteobridge W/m2
17:24 86.5 °F 75.6 °F 29.80 in SSW 10.1 mph 18.0 mph 70% 0.00 in meteobridge W/m2
17:29 86.2 °F 75.7 °F 29.80 in WSW 4.9 mph 10.0 mph 71% 0.00 in meteobridge W/m2
17:34 86.2 °F 75.7 °F 29.80 in South 4.0 mph 18.0 mph 71% 0.00 in meteobridge W/m2
17:39 85.8 °F 75.4 °F 29.80 in South 2.0 mph 10.0 mph 71% 0.00 in meteobridge W/m2
17:44 85.6 °F 75.6 °F 29.80 in South 2.0 mph 8.0 mph 72% 0.00 in meteobridge W/m2
17:49 84.9 °F 74.8 °F 29.80 in West 6.9 mph 16.0 mph 72% 0.00 in meteobridge W/m2
17:55 84.9 °F 75.7 °F 29.80 in SE 2.0 mph 13.0 mph 74% 0.00 in meteobridge W/m2
18:00 84.7 °F 75.6 °F 29.80 in WSW 2.9 mph 7.0 mph 74% 0.00 in meteobridge W/m2
18:05 85.3 °F 75.2 °F 29.80 in South 6.9 mph 7.0 mph 72% 0.00 in meteobridge W/m2
18:10 84.9 °F 75.2 °F 29.80 in South 4.0 mph 9.0 mph 73% 0.00 in meteobridge W/m2
18:15 84.7 °F 75.9 °F 29.80 in WSW 2.9 mph 7.0 mph 75% 0.00 in meteobridge W/m2
18:20 84.7 °F 75.6 °F 29.80 in South 4.9 mph 11.0 mph 74% 0.00 in meteobridge W/m2
18:25 84.6 °F 75.7 °F 29.80 in SSW 2.0 mph 8.0 mph 75% 0.00 in meteobridge W/m2
18:30 84.6 °F 75.7 °F 29.80 in SSE 4.9 mph 8.0 mph 75% 0.00 in meteobridge W/m2
18:35 84.4 °F 75.6 °F 29.80 in SSE 6.9 mph 7.0 mph 75% 0.00 in meteobridge W/m2
18:40 84.0 °F 75.2 °F 29.80 in SE 0.9 mph 10.0 mph 75% 0.00 in meteobridge W/m2
18:45 83.8 °F 74.7 °F 29.80 in SW 4.0 mph 10.0 mph 74% 0.00 in meteobridge W/m2
18:50 83.7 °F 74.8 °F 29.80 in SW 4.9 mph 6.0 mph 75% 0.00 in meteobridge W/m2
18:55 83.3 °F 74.5 °F 29.80 in SSW 2.9 mph 7.0 mph 75% 0.00 in meteobridge W/m2
19:00 83.1 °F 74.3 °F 29.80 in SSE 2.9 mph 9.0 mph 75% 0.00 in meteobridge W/m2
19:05 82.8 °F 73.9 °F 29.80 in SSE 2.9 mph 7.0 mph 75% 0.00 in meteobridge W/m2
19:10 82.6 °F 74.3 °F 29.80 in SSE 2.0 mph 9.0 mph 76% 0.00 in meteobridge W/m2
19:15 82.0 °F 73.8 °F 29.80 in SSE 6.0 mph 6.0 mph 76% 0.00 in meteobridge W/m2
19:21 82.0 °F 73.8 °F 29.80 in SW 2.0 mph 8.0 mph 76% 0.00 in meteobridge W/m2
19:26 81.9 °F 73.6 °F 29.80 in SSE 0.9 mph 6.0 mph 76% 0.00 in meteobridge W/m2
19:31 81.7 °F 73.4 °F 29.79 in SW 4.9 mph 8.0 mph 76% 0.00 in meteobridge W/m2
19:36 81.3 °F 73.0 °F 29.79 in South 2.0 mph 6.0 mph 76% 0.00 in meteobridge W/m2
19:41 81.3 °F 73.0 °F 29.79 in South 4.9 mph 7.0 mph 76% 0.00 in meteobridge W/m2
19:46 81.1 °F 73.2 °F 29.79 in SSE 2.9 mph 6.0 mph 77% 0.00 in meteobridge W/m2
19:50 81.1 °F 73.2 °F 29.79 in SW 6.0 mph 7.0 mph 77% 0.00 in meteobridge W/m2
19:55 81.0 °F 73.0 °F 29.79 in SSW 4.0 mph 6.0 mph 77% 0.00 in meteobridge W/m2
20:00 81.0 °F 73.0 °F 29.79 in SSE 2.0 mph 9.0 mph 77% 0.00 in meteobridge W/m2
20:05 80.8 °F 72.9 °F 29.78 in South 6.0 mph 8.0 mph 77% 0.00 in meteobridge W/m2
20:10 80.6 °F 73.0 °F 29.78 in SSE 4.9 mph 5.0 mph 78% 0.00 in meteobridge W/m2
20:16 80.4 °F 72.9 °F 29.77 in SSW 0.9 mph 9.0 mph 78% 0.00 in meteobridge W/m2
20:17 80.2 °F 73.0 °F 29.77 in SE 2.0 mph 3.0 mph 79% 0.00 in meteobridge W/m2
20:22 80.1 °F 73.0 °F 29.77 in SSW 4.0 mph 9.0 mph 79% 0.00 in meteobridge W/m2
20:27 80.2 °F 72.7 °F 29.77 in SSE 6.0 mph 6.0 mph 78% 0.00 in meteobridge W/m2
20:32 80.4 °F 72.9 °F 29.76 in WSW 2.9 mph 6.0 mph 78% 0.00 in meteobridge W/m2
20:37 80.2 °F 73.0 °F 29.76 in SSW 2.9 mph 8.0 mph 79% 0.00 in meteobridge W/m2
20:42 80.1 °F 73.4 °F 29.76 in SSE 2.9 mph 7.0 mph 80% 0.00 in meteobridge W/m2
20:47 80.2 °F 73.6 °F 29.76 in SE 6.9 mph 12.0 mph 80% 0.00 in meteobridge W/m2
20:52 80.2 °F 73.6 °F 29.75 in SW 4.0 mph 11.0 mph 80% 0.00 in meteobridge W/m2
20:57 80.1 °F 73.8 °F 29.75 in SSW 2.0 mph 10.0 mph 81% 0.00 in meteobridge W/m2
21:02 79.9 °F 73.6 °F 29.75 in South 4.9 mph 7.0 mph 81% 0.00 in meteobridge W/m2
21:07 79.9 °F 73.6 °F 29.75 in SSE 6.9 mph 7.0 mph 81% 0.00 in meteobridge W/m2
21:12 79.9 °F 73.6 °F 29.75 in SSE 6.0 mph 9.0 mph 81% 0.00 in meteobridge W/m2
21:17 79.7 °F 73.4 °F 29.75 in SW 2.9 mph 8.0 mph 81% 0.00 in meteobridge W/m2
21:22 79.9 °F 73.6 °F 29.75 in SSW 2.9 mph 6.0 mph 81% 0.00 in meteobridge W/m2
21:27 79.9 °F 73.9 °F 29.76 in West 2.9 mph 8.0 mph 82% 0.00 in meteobridge W/m2
21:32 79.9 °F 73.6 °F 29.75 in SSW 6.9 mph 9.0 mph 81% 0.00 in meteobridge W/m2
21:37 80.1 °F 73.8 °F 29.76 in WSW 2.0 mph 9.0 mph 81% 0.00 in meteobridge W/m2
21:42 80.1 °F 73.8 °F 29.75 in South 4.0 mph 12.0 mph 81% 0.00 in meteobridge W/m2
21:47 80.1 °F 73.8 °F 29.76 in South 2.9 mph 10.0 mph 81% 0.00 in meteobridge W/m2
21:52 80.2 °F 73.6 °F 29.76 in West 2.9 mph 8.0 mph 80% 0.00 in meteobridge W/m2
21:57 80.1 °F 73.8 °F 29.76 in West 6.9 mph 10.0 mph 81% 0.00 in meteobridge W/m2
22:02 80.2 °F 73.9 °F 29.77 in SW 10.1 mph 10.1 mph 81% 0.00 in meteobridge W/m2
22:07 80.2 °F 73.9 °F 29.78 in SW 6.9 mph 9.0 mph 81% 0.00 in meteobridge W/m2
22:12 79.5 °F 74.3 °F 29.78 in WSW 2.0 mph 8.0 mph 84% 0.01 in meteobridge W/m2
22:18 77.5 °F 73.8 °F 29.80 in SSW 6.9 mph 12.0 mph 88% 0.09 in meteobridge W/m2
22:23 75.6 °F 72.5 °F 29.79 in WSW 2.0 mph 9.0 mph 90% 0.22 in meteobridge W/m2
Atglen Borough, Pennsylvania, USA
Compliments of Weather Underground - 2.5 mb